createdAt,value
2023-12-13T00:00:16.879Z,88.18
2023-12-13T00:01:43.574Z,88.18
2023-12-13T00:02:49.954Z,88.12
2023-12-13T00:03:56.675Z,88.13
2023-12-13T00:05:03.867Z,88.00
2023-12-13T00:06:10.239Z,88.09
2023-12-13T00:07:16.677Z,87.83
2023-12-13T00:08:23.149Z,88.06
2023-12-13T00:09:29.618Z,88.03
2023-12-13T00:10:36.235Z,88.02
2023-12-13T00:11:42.549Z,88.03
2023-12-13T00:12:49.115Z,87.89
2023-12-13T00:13:55.787Z,87.85
2023-12-13T00:15:02.108Z,87.75
2023-12-13T00:16:10.231Z,87.91
2023-12-13T00:17:16.568Z,87.86
2023-12-13T00:18:23.295Z,87.72
2023-12-13T00:19:29.523Z,87.59
2023-12-13T00:20:38.743Z,87.57
2023-12-13T00:21:45.420Z,87.40
2023-12-13T00:22:52.268Z,87.46
2023-12-13T00:23:58.696Z,87.50
2023-12-13T00:25:05.849Z,87.47
2023-12-13T00:26:17.281Z,87.43
2023-12-13T00:27:24.069Z,87.35
2023-12-13T00:28:30.981Z,87.27
2023-12-13T00:29:38.154Z,87.27
2023-12-13T00:30:46.472Z,87.21
2023-12-13T00:31:53.064Z,87.15
2023-12-13T00:32:59.397Z,87.27
2023-12-13T00:34:06.686Z,87.11
2023-12-13T00:35:13.336Z,86.98
2023-12-13T00:36:19.601Z,86.72
2023-12-13T00:37:25.993Z,86.74
2023-12-13T00:38:32.284Z,86.82
2023-12-13T00:39:38.756Z,86.85
2023-12-13T00:40:46.569Z,86.79
2023-12-13T00:41:53.255Z,86.90
2023-12-13T00:42:59.606Z,86.96
2023-12-13T00:44:06.146Z,86.89
2023-12-13T00:45:13.412Z,86.87
2023-12-13T00:46:24.034Z,86.73
2023-12-13T00:47:30.823Z,86.91
2023-12-13T00:48:37.618Z,86.66
2023-12-13T00:49:44.069Z,86.87
2023-12-13T00:50:50.752Z,86.80
2023-12-13T00:51:57.242Z,86.68
2023-12-13T00:53:03.796Z,86.89
2023-12-13T00:54:09.972Z,87.17
2023-12-13T00:55:16.344Z,87.25
2023-12-13T00:56:22.600Z,87.17
2023-12-13T00:57:28.901Z,87.11
2023-12-13T00:58:35.192Z,87.19
2023-12-13T00:59:41.426Z,87.46
2023-12-13T01:00:47.948Z,87.30
2023-12-13T01:01:54.531Z,87.15
2023-12-13T01:03:01.097Z,87.37
2023-12-13T01:04:07.997Z,87.45
2023-12-13T01:05:14.539Z,87.48
2023-12-13T01:06:20.888Z,87.61
2023-12-13T01:07:27.275Z,87.56
2023-12-13T01:08:33.628Z,87.39
2023-12-13T01:09:42.513Z,87.31
2023-12-13T01:10:49.029Z,87.56
2023-12-13T01:11:55.378Z,87.55
2023-12-13T01:13:02.398Z,87.66
2023-12-13T01:14:08.982Z,87.61
2023-12-13T01:15:15.989Z,87.73
2023-12-13T01:16:22.256Z,87.88
2023-12-13T01:17:28.478Z,88.10
2023-12-13T01:18:34.899Z,88.06
2023-12-13T01:19:41.332Z,88.29
2023-12-13T01:20:48.040Z,88.31
2023-12-13T01:21:54.851Z,88.36
2023-12-13T01:23:01.365Z,88.66
2023-12-13T01:24:08.196Z,88.43
2023-12-13T01:25:14.867Z,88.63
2023-12-13T01:26:21.091Z,88.67
2023-12-13T01:27:27.396Z,88.52
2023-12-13T01:28:34.061Z,88.54
2023-12-13T01:29:40.356Z,88.35
2023-12-13T01:30:46.797Z,88.40
2023-12-13T01:31:53.448Z,88.27
2023-12-13T01:33:04.060Z,88.29
2023-12-13T01:34:11.108Z,88.38
2023-12-13T01:35:17.533Z,88.39
2023-12-13T01:36:24.253Z,88.25
2023-12-13T01:37:31.433Z,88.09
2023-12-13T01:38:38.139Z,87.66
2023-12-13T01:39:45.308Z,87.51
2023-12-13T01:41:11.165Z,87.44
2023-12-13T01:42:20.346Z,87.30
2023-12-13T01:43:27.442Z,87.43
2023-12-13T01:44:33.787Z,87.45
2023-12-13T01:45:40.142Z,87.34
2023-12-13T01:46:48.031Z,87.33
2023-12-13T01:47:54.953Z,87.40
2023-12-13T01:49:02.889Z,86.92
2023-12-13T01:50:11.223Z,86.87
2023-12-13T01:51:18.574Z,86.89
2023-12-13T01:52:25.115Z,87.03
2023-12-13T01:53:33.211Z,87.06
2023-12-13T01:54:40.681Z,87.14
2023-12-13T01:55:47.906Z,87.20
2023-12-13T01:56:54.617Z,87.23
2023-12-13T01:58:01.484Z,87.26
2023-12-13T01:59:07.932Z,87.15
2023-12-13T02:00:16.974Z,87.28
2023-12-13T02:01:23.429Z,87.31
2023-12-13T02:02:30.434Z,87.28
2023-12-13T02:03:38.365Z,87.22
2023-12-13T02:04:46.089Z,87.41
2023-12-13T02:05:53.380Z,87.52
2023-12-13T02:07:00.014Z,87.63
2023-12-13T02:08:07.566Z,87.82
2023-12-13T02:09:14.316Z,87.93
2023-12-13T02:10:21.888Z,88.01
2023-12-13T02:11:29.107Z,87.95
2023-12-13T02:12:36.176Z,88.04
2023-12-13T02:13:43.386Z,87.87
2023-12-13T02:14:49.756Z,87.95
2023-12-13T02:15:56.519Z,87.85
2023-12-13T02:17:03.450Z,87.80
2023-12-13T02:18:17.194Z,87.65
2023-12-13T02:19:23.542Z,87.80
2023-12-13T02:20:30.504Z,87.75
2023-12-13T02:21:36.741Z,87.91
2023-12-13T02:22:43.254Z,87.74
2023-12-13T02:23:52.693Z,87.60
2023-12-13T02:24:59.949Z,87.61
2023-12-13T02:26:07.555Z,87.63
2023-12-13T02:27:14.601Z,87.61
2023-12-13T02:28:22.151Z,87.43
2023-12-13T02:29:28.707Z,87.44
2023-12-13T02:30:35.243Z,87.34
2023-12-13T02:31:45.183Z,87.42
2023-12-13T02:32:51.659Z,87.43
2023-12-13T02:33:58.362Z,87.30
2023-12-13T02:35:05.062Z,87.24
2023-12-13T02:36:12.094Z,86.99
2023-12-13T02:37:18.392Z,86.94
2023-12-13T02:38:25.899Z,86.92
2023-12-13T02:39:32.668Z,87.09
2023-12-13T02:40:39.149Z,87.30
2023-12-13T02:41:45.831Z,87.37
2023-12-13T02:42:52.054Z,87.43
2023-12-13T02:43:58.288Z,87.41
2023-12-13T02:45:05.168Z,87.40
2023-12-13T02:46:11.525Z,87.44
2023-12-13T02:47:17.736Z,87.59
2023-12-13T02:48:28.908Z,87.42
2023-12-13T02:49:35.719Z,87.51
2023-12-13T02:50:42.286Z,87.38
2023-12-13T02:51:48.638Z,87.36
2023-12-13T02:52:55.319Z,87.38
2023-12-13T02:54:01.892Z,87.46
2023-12-13T02:55:13.099Z,87.29
2023-12-13T02:56:19.733Z,87.30
2023-12-13T02:57:26.108Z,87.27
2023-12-13T02:58:32.719Z,87.19
2023-12-13T02:59:38.820Z,87.17
2023-12-13T03:00:45.411Z,87.34
2023-12-13T03:01:51.862Z,87.26
2023-12-13T03:02:59.060Z,87.24
2023-12-13T03:04:05.840Z,87.32
2023-12-13T03:05:12.608Z,87.36
2023-12-13T03:06:19.596Z,87.25
2023-12-13T03:07:26.639Z,87.28
2023-12-13T03:08:33.418Z,87.19
2023-12-13T03:09:41.156Z,87.25
2023-12-13T03:10:47.769Z,87.23
2023-12-13T03:11:54.659Z,87.16
2023-12-13T03:13:02.368Z,87.04
2023-12-13T03:14:09.217Z,87.08
2023-12-13T03:15:16.361Z,87.22
2023-12-13T03:16:24.814Z,87.00
2023-12-13T03:17:31.694Z,86.99
2023-12-13T03:18:39.459Z,87.03
2023-12-13T03:19:46.482Z,86.93
2023-12-13T03:20:56.074Z,86.86
2023-12-13T03:22:04.376Z,86.92
2023-12-13T03:23:11.620Z,86.88
2023-12-13T03:24:18.045Z,86.68
2023-12-13T03:25:24.622Z,86.71
2023-12-13T03:26:31.398Z,86.86
2023-12-13T03:27:38.672Z,86.92
2023-12-13T03:28:45.534Z,86.68
2023-12-13T03:29:52.218Z,86.70
2023-12-13T03:30:59.113Z,86.63
2023-12-13T03:32:07.110Z,86.80
2023-12-13T03:33:13.965Z,86.77
2023-12-13T03:34:20.587Z,86.86
2023-12-13T03:35:27.553Z,86.65
2023-12-13T03:36:34.084Z,86.75
2023-12-13T03:37:41.502Z,86.72
2023-12-13T03:38:48.234Z,86.67
2023-12-13T03:39:54.740Z,86.54
2023-12-13T03:41:01.686Z,86.59
2023-12-13T03:42:08.234Z,86.81
2023-12-13T03:43:14.573Z,86.85
2023-12-13T03:44:21.143Z,86.79
2023-12-13T03:45:28.223Z,86.75
2023-12-13T03:46:36.110Z,86.85
2023-12-13T03:47:44.250Z,86.64
2023-12-13T03:48:51.145Z,86.68
2023-12-13T03:49:57.959Z,86.84
2023-12-13T03:51:06.023Z,86.65
2023-12-13T03:52:12.632Z,86.49
2023-12-13T03:53:18.783Z,86.63
2023-12-13T03:54:25.413Z,86.43
2023-12-13T03:55:31.678Z,86.37
2023-12-13T03:56:38.313Z,86.34
2023-12-13T03:57:44.829Z,86.44
2023-12-13T03:58:51.261Z,86.43
2023-12-13T03:59:57.860Z,86.59
2023-12-13T04:01:04.502Z,86.29
2023-12-13T04:02:10.796Z,86.34
2023-12-13T04:03:17.298Z,86.53
2023-12-13T04:04:23.842Z,86.22
2023-12-13T04:05:30.783Z,86.10
2023-12-13T04:06:37.209Z,85.91
2023-12-13T04:07:43.897Z,86.27
2023-12-13T04:08:50.534Z,86.12
2023-12-13T04:09:57.023Z,86.13
2023-12-13T04:11:03.669Z,85.97
2023-12-13T04:12:11.126Z,85.92
2023-12-13T04:13:17.765Z,86.06
2023-12-13T04:14:24.288Z,86.14
2023-12-13T04:15:30.832Z,86.07
2023-12-13T04:16:36.935Z,86.33
2023-12-13T04:17:43.714Z,86.11
2023-12-13T04:18:52.947Z,86.26
2023-12-13T04:19:59.866Z,86.27
2023-12-13T04:21:07.299Z,86.32
2023-12-13T04:22:13.909Z,86.14
2023-12-13T04:23:20.646Z,86.31
2023-12-13T04:24:26.982Z,86.23
2023-12-13T04:25:33.196Z,86.36
2023-12-13T04:26:39.839Z,86.44
2023-12-13T04:27:48.723Z,86.26
2023-12-13T04:28:55.422Z,86.36
2023-12-13T04:30:02.082Z,86.57
2023-12-13T04:31:09.160Z,86.40
2023-12-13T04:32:15.598Z,86.45
2023-12-13T04:33:22.092Z,86.51
2023-12-13T04:34:28.801Z,86.61
2023-12-13T04:35:35.275Z,86.78
2023-12-13T04:36:41.921Z,86.80
2023-12-13T04:37:48.670Z,86.80
2023-12-13T04:38:55.604Z,86.92
2023-12-13T04:40:02.480Z,86.98
2023-12-13T04:41:09.536Z,87.01
2023-12-13T04:42:16.002Z,87.18
2023-12-13T04:43:23.095Z,87.09
2023-12-13T04:44:29.827Z,86.97
2023-12-13T04:45:36.462Z,86.92
2023-12-13T04:46:44.437Z,86.93
2023-12-13T04:47:50.957Z,86.99
2023-12-13T04:49:02.393Z,86.92
2023-12-13T04:50:10.809Z,86.98
2023-12-13T04:51:17.318Z,86.89
2023-12-13T04:52:24.253Z,86.90
2023-12-13T04:53:31.212Z,86.69
2023-12-13T04:54:38.559Z,86.64
2023-12-13T04:55:44.833Z,86.40
2023-12-13T04:56:51.318Z,86.46
2023-12-13T04:57:57.837Z,86.44
2023-12-13T04:59:04.292Z,86.48
2023-12-13T05:00:12.678Z,86.56
2023-12-13T05:01:18.949Z,86.44
2023-12-13T05:02:25.394Z,86.25
2023-12-13T05:03:31.982Z,86.29
2023-12-13T05:04:38.748Z,86.26
2023-12-13T05:05:45.437Z,86.15
2023-12-13T05:06:51.902Z,86.20
2023-12-13T05:07:58.540Z,86.22
2023-12-13T05:09:05.063Z,86.19
2023-12-13T05:10:12.400Z,86.24
2023-12-13T05:11:20.289Z,86.23
2023-12-13T05:12:26.573Z,86.15
2023-12-13T05:13:33.185Z,86.10
2023-12-13T05:14:39.844Z,86.12
2023-12-13T05:15:46.169Z,86.29
2023-12-13T05:16:52.702Z,86.17
2023-12-13T05:17:59.228Z,86.17
2023-12-13T05:19:06.041Z,86.26
2023-12-13T05:20:13.326Z,86.26
2023-12-13T05:21:19.774Z,86.28
2023-12-13T05:22:26.902Z,86.25
2023-12-13T05:23:33.341Z,86.40
2023-12-13T05:24:40.005Z,86.26
2023-12-13T05:25:46.756Z,86.22
2023-12-13T05:26:53.337Z,86.51
2023-12-13T05:27:59.785Z,86.26
2023-12-13T05:29:06.814Z,86.27
2023-12-13T05:30:14.650Z,86.19
2023-12-13T05:31:25.306Z,86.16
2023-12-13T05:32:31.775Z,86.42
2023-12-13T05:33:39.689Z,86.24
2023-12-13T05:34:46.155Z,86.17
2023-12-13T05:35:52.979Z,86.35
2023-12-13T05:36:59.252Z,86.29
2023-12-13T05:38:06.012Z,86.39
2023-12-13T05:39:12.856Z,86.24
2023-12-13T05:40:19.236Z,86.28
2023-12-13T05:41:25.777Z,86.40
2023-12-13T05:42:34.818Z,86.26
2023-12-13T05:43:41.749Z,86.26
2023-12-13T05:44:48.305Z,86.27
2023-12-13T05:45:56.013Z,86.29
2023-12-13T05:47:02.744Z,86.20
2023-12-13T05:48:09.724Z,86.27
2023-12-13T05:49:19.346Z,86.22
2023-12-13T05:50:26.316Z,86.25
2023-12-13T05:51:33.455Z,86.39
2023-12-13T05:52:40.721Z,86.33
2023-12-13T05:53:47.373Z,86.31
2023-12-13T05:54:53.838Z,86.20
2023-12-13T05:56:02.197Z,86.26
2023-12-13T05:57:08.653Z,86.26
2023-12-13T05:58:16.077Z,86.30
2023-12-13T05:59:22.769Z,86.34
2023-12-13T06:00:32.125Z,86.36
2023-12-13T06:01:39.381Z,86.39
2023-12-13T06:02:55.307Z,86.35
2023-12-13T06:04:03.894Z,86.36
2023-12-13T06:05:12.561Z,86.42
2023-12-13T06:06:20.292Z,86.81
2023-12-13T06:07:26.742Z,86.81
2023-12-13T06:08:33.817Z,87.22
2023-12-13T06:09:41.357Z,87.80
2023-12-13T06:10:48.060Z,88.28
2023-12-13T06:11:54.698Z,87.59
2023-12-13T06:13:00.892Z,87.04
2023-12-13T06:14:07.160Z,86.99
2023-12-13T06:15:14.043Z,87.21
2023-12-13T06:16:20.559Z,87.21
2023-12-13T06:17:27.215Z,87.25
2023-12-13T06:18:34.093Z,87.78
2023-12-13T06:19:41.985Z,87.68
2023-12-13T06:20:48.249Z,87.83
2023-12-13T06:21:56.394Z,87.86
2023-12-13T06:23:03.644Z,87.80
2023-12-13T06:24:10.337Z,86.73
2023-12-13T06:25:17.597Z,86.30
2023-12-13T06:26:25.115Z,86.51
2023-12-13T06:27:31.836Z,87.01
2023-12-13T06:28:38.351Z,86.23
2023-12-13T06:29:45.293Z,86.39
2023-12-13T06:30:52.393Z,86.24
2023-12-13T06:31:59.003Z,85.91
2023-12-13T06:33:06.219Z,85.36
2023-12-13T06:34:12.747Z,85.69
2023-12-13T06:35:19.209Z,85.90
2023-12-13T06:36:25.870Z,84.84
2023-12-13T06:37:33.476Z,84.40
2023-12-13T06:38:39.996Z,84.76
2023-12-13T06:39:48.254Z,85.05
2023-12-13T06:40:56.514Z,84.54
2023-12-13T06:42:03.921Z,83.96
2023-12-13T06:43:11.118Z,84.30
2023-12-13T06:44:17.965Z,83.88
2023-12-13T06:45:24.194Z,83.96
2023-12-13T06:46:30.667Z,83.64
2023-12-13T06:47:37.579Z,83.81
2023-12-13T06:48:44.732Z,84.07
2023-12-13T06:49:51.178Z,85.10
2023-12-13T06:50:58.293Z,84.64
2023-12-13T06:52:05.383Z,83.83
2023-12-13T06:53:12.195Z,83.43
2023-12-13T06:54:19.768Z,82.40
2023-12-13T06:55:26.485Z,81.86
2023-12-13T06:56:33.048Z,80.69
2023-12-13T06:57:40.421Z,80.13
2023-12-13T06:58:47.359Z,81.06
2023-12-13T06:59:54.611Z,81.14
2023-12-13T07:01:00.946Z,81.42
2023-12-13T07:02:08.364Z,81.31
2023-12-13T07:03:14.972Z,81.58
2023-12-13T07:04:21.785Z,81.59
2023-12-13T07:05:28.200Z,82.26
2023-12-13T07:06:35.268Z,82.33
2023-12-13T07:07:41.490Z,82.68
2023-12-13T07:08:48.103Z,82.31
2023-12-13T07:09:55.585Z,81.94
2023-12-13T07:11:04.800Z,82.14
2023-12-13T07:12:11.940Z,81.78
2023-12-13T07:13:18.881Z,81.49
2023-12-13T07:14:26.734Z,81.62
2023-12-13T07:15:33.310Z,81.42
2023-12-13T07:16:39.880Z,81.35
2023-12-13T07:17:46.331Z,80.87
2023-12-13T07:18:53.557Z,80.81
2023-12-13T07:20:01.202Z,81.00
2023-12-13T07:21:09.671Z,80.93
2023-12-13T07:22:16.140Z,81.18
2023-12-13T07:23:22.911Z,80.90
2023-12-13T07:24:29.432Z,80.73
2023-12-13T07:25:35.695Z,81.01
2023-12-13T07:26:42.134Z,80.69
2023-12-13T07:27:48.674Z,80.28
2023-12-13T07:28:55.229Z,80.67
2023-12-13T07:30:01.849Z,80.29
2023-12-13T07:31:10.357Z,80.42
2023-12-13T07:32:17.453Z,80.37
2023-12-13T07:33:24.837Z,80.63
2023-12-13T07:34:31.454Z,80.59
2023-12-13T07:35:38.227Z,80.81
2023-12-13T07:36:49.583Z,80.25
2023-12-13T07:37:56.594Z,80.32
2023-12-13T07:39:04.410Z,80.29
2023-12-13T07:40:13.320Z,80.50
2023-12-13T07:41:20.730Z,79.94
2023-12-13T07:42:29.192Z,80.38
2023-12-13T07:43:35.529Z,79.72
2023-12-13T07:44:43.863Z,80.13
2023-12-13T07:45:53.258Z,80.29
2023-12-13T07:47:00.279Z,80.09
2023-12-13T07:48:17.979Z,80.05
2023-12-13T07:49:32.819Z,80.21
2023-12-13T07:50:39.692Z,80.46
2023-12-13T07:51:46.443Z,80.47
2023-12-13T07:52:52.968Z,80.24
2023-12-13T07:54:01.938Z,80.26
2023-12-13T07:55:10.149Z,80.21
2023-12-13T07:56:23.981Z,80.10
2023-12-13T07:57:34.231Z,80.60
2023-12-13T07:58:40.589Z,80.28
2023-12-13T07:59:47.186Z,80.06
2023-12-13T08:00:53.595Z,80.35
2023-12-13T08:01:59.840Z,80.28
2023-12-13T08:03:06.242Z,80.51
2023-12-13T08:04:12.783Z,80.31
2023-12-13T08:05:21.478Z,80.11
2023-12-13T08:06:28.150Z,80.14
2023-12-13T08:07:34.466Z,80.49
2023-12-13T08:08:41.076Z,80.43
2023-12-13T08:09:47.588Z,80.53
2023-12-13T08:10:54.676Z,79.83
2023-12-13T08:12:01.340Z,80.17
2023-12-13T08:13:07.963Z,79.99
2023-12-13T08:14:17.567Z,79.80
2023-12-13T08:15:24.408Z,80.12
2023-12-13T08:16:31.098Z,80.07
2023-12-13T08:17:37.887Z,80.19
2023-12-13T08:18:44.538Z,79.79
2023-12-13T08:19:51.601Z,79.77
2023-12-13T08:20:58.133Z,80.11
2023-12-13T08:22:05.068Z,80.37
2023-12-13T08:23:11.571Z,80.22
2023-12-13T08:24:18.521Z,80.01
2023-12-13T08:25:25.114Z,80.13
2023-12-13T08:26:31.430Z,80.37
2023-12-13T08:27:38.307Z,80.19
2023-12-13T08:28:44.889Z,79.80
2023-12-13T08:29:51.970Z,79.85
2023-12-13T08:31:08.750Z,79.86
2023-12-13T08:32:23.598Z,80.05
2023-12-13T08:33:29.970Z,79.85
2023-12-13T08:34:36.921Z,79.99
2023-12-13T08:35:43.695Z,79.72
2023-12-13T08:36:50.274Z,79.59
2023-12-13T08:37:56.996Z,79.64
2023-12-13T08:39:04.264Z,79.47
2023-12-13T08:40:12.534Z,79.75
2023-12-13T08:41:18.973Z,79.53
2023-12-13T08:42:30.643Z,79.58
2023-12-13T08:43:43.275Z,79.79
2023-12-13T08:44:50.390Z,79.40
2023-12-13T08:45:56.773Z,79.72
2023-12-13T08:47:03.523Z,79.82
2023-12-13T08:48:10.084Z,79.66
2023-12-13T08:49:16.588Z,79.51
2023-12-13T08:50:23.682Z,79.53
2023-12-13T08:51:30.252Z,79.35
2023-12-13T08:52:36.573Z,79.40
2023-12-13T08:53:42.778Z,79.43
2023-12-13T08:54:48.995Z,79.08
2023-12-13T08:55:55.280Z,79.22
2023-12-13T08:57:02.554Z,79.02
2023-12-13T08:58:08.896Z,79.44
2023-12-13T08:59:15.167Z,79.16
2023-12-13T09:00:22.746Z,79.33
2023-12-13T09:01:29.748Z,79.19
2023-12-13T09:02:36.011Z,79.36
2023-12-13T09:03:42.600Z,79.13
2023-12-13T09:04:49.799Z,79.23
2023-12-13T09:05:56.261Z,79.07
2023-12-13T09:07:02.642Z,78.99
2023-12-13T09:08:09.114Z,78.56
2023-12-13T09:09:15.961Z,78.90
2023-12-13T09:10:27.497Z,78.63
2023-12-13T09:11:33.600Z,78.48
2023-12-13T09:12:39.898Z,78.62
2023-12-13T09:13:46.375Z,78.78
2023-12-13T09:14:53.233Z,78.60
2023-12-13T09:15:59.771Z,78.15
2023-12-13T09:17:06.647Z,78.08
2023-12-13T09:18:13.226Z,77.90
2023-12-13T09:19:20.545Z,78.24
2023-12-13T09:20:33.060Z,77.97
2023-12-13T09:21:39.584Z,78.62
2023-12-13T09:22:46.255Z,78.65
2023-12-13T09:23:52.830Z,78.44
2023-12-13T09:24:59.986Z,78.59
2023-12-13T09:26:07.221Z,79.06
2023-12-13T09:27:13.691Z,78.71
2023-12-13T09:28:20.579Z,78.75
2023-12-13T09:29:26.835Z,78.53
2023-12-13T09:30:33.125Z,78.66
2023-12-13T09:31:39.987Z,78.22
2023-12-13T09:32:48.085Z,77.91
2023-12-13T09:33:54.951Z,77.96
2023-12-13T09:35:01.641Z,77.84
2023-12-13T09:36:10.575Z,77.86
2023-12-13T09:37:17.724Z,77.77
2023-12-13T09:38:24.258Z,77.53
2023-12-13T09:39:31.151Z,77.38
2023-12-13T09:40:37.927Z,76.88
2023-12-13T09:41:55.338Z,76.90
2023-12-13T09:43:03.151Z,75.93
2023-12-13T09:44:10.358Z,75.53
2023-12-13T09:45:22.548Z,75.63
2023-12-13T09:46:30.899Z,74.84
2023-12-13T09:47:39.393Z,74.84
2023-12-13T09:48:47.298Z,74.96
2023-12-13T09:49:55.065Z,75.32
2023-12-13T09:51:04.097Z,75.56
2023-12-13T09:52:09.593Z,75.27
2023-12-13T09:53:17.711Z,75.18
2023-12-13T09:54:24.475Z,75.45
2023-12-13T09:55:30.886Z,75.48
2023-12-13T09:56:38.183Z,75.46
2023-12-13T09:57:44.891Z,74.80
2023-12-13T09:58:51.869Z,74.27
2023-12-13T09:59:59.097Z,74.06
2023-12-13T10:01:17.443Z,73.78
2023-12-13T10:02:23.823Z,73.79
2023-12-13T10:03:32.820Z,72.98
2023-12-13T10:04:37.710Z,73.43
2023-12-13T10:05:48.769Z,73.46
2023-12-13T10:06:55.605Z,73.37
2023-12-13T10:08:05.329Z,73.40
2023-12-13T10:09:12.634Z,72.69
2023-12-13T10:10:19.726Z,72.77
2023-12-13T10:11:26.575Z,72.74
2023-12-13T10:12:35.000Z,72.21
2023-12-13T10:13:42.534Z,71.68
2023-12-13T10:14:49.050Z,72.19
2023-12-13T10:15:55.531Z,72.91
2023-12-13T10:17:11.810Z,73.29
2023-12-13T10:18:23.987Z,73.18
2023-12-13T10:19:30.799Z,73.13
2023-12-13T10:20:38.104Z,73.49
2023-12-13T10:21:47.378Z,73.98
2023-12-13T10:22:52.258Z,74.24
2023-12-13T10:23:58.787Z,74.39
2023-12-13T10:25:05.994Z,74.70
2023-12-13T10:26:13.512Z,74.75
2023-12-13T10:27:20.528Z,74.73
2023-12-13T10:28:27.377Z,74.79
2023-12-13T10:29:34.046Z,74.92
2023-12-13T10:30:41.678Z,74.64
2023-12-13T10:31:49.569Z,74.81
2023-12-13T10:32:56.228Z,74.86
2023-12-13T10:34:03.013Z,74.85
2023-12-13T10:35:10.717Z,75.05
2023-12-13T10:36:19.353Z,75.19
2023-12-13T10:37:28.424Z,75.30
2023-12-13T10:38:36.813Z,75.19
2023-12-13T10:39:45.911Z,75.71
2023-12-13T10:40:51.030Z,75.91
2023-12-13T10:42:00.554Z,77.00
2023-12-13T10:43:09.293Z,77.23
2023-12-13T10:44:20.746Z,77.19
2023-12-13T10:45:28.037Z,77.18
2023-12-13T10:46:37.826Z,76.49
2023-12-13T10:47:47.275Z,76.19
2023-12-13T10:48:55.186Z,76.47
2023-12-13T10:50:02.948Z,76.43
2023-12-13T10:51:10.987Z,76.50
2023-12-13T10:52:19.458Z,75.91
2023-12-13T10:53:28.054Z,75.95
2023-12-13T10:54:36.150Z,76.06
2023-12-13T10:55:44.568Z,76.33
2023-12-13T10:56:52.454Z,76.44
2023-12-13T10:57:59.445Z,74.92
2023-12-13T10:59:08.761Z,74.95
2023-12-13T11:00:18.142Z,75.73
2023-12-13T11:01:25.481Z,75.38
2023-12-13T11:02:37.524Z,75.62
2023-12-13T11:03:49.543Z,74.87
2023-12-13T11:04:57.108Z,74.28
2023-12-13T11:06:08.727Z,75.50
2023-12-13T11:07:21.820Z,75.97
2023-12-13T11:08:42.583Z,74.97
2023-12-13T11:09:57.042Z,73.67
2023-12-13T11:11:05.431Z,73.76
2023-12-13T11:12:20.035Z,73.58
2023-12-13T11:13:27.673Z,74.42
2023-12-13T11:14:36.343Z,74.46
2023-12-13T11:15:46.722Z,74.25
2023-12-13T11:16:53.842Z,74.18
2023-12-13T11:18:05.431Z,74.24
2023-12-13T11:19:20.112Z,74.36
2023-12-13T11:20:28.182Z,74.82
2023-12-13T11:21:36.090Z,74.84
2023-12-13T11:22:50.370Z,75.02
2023-12-13T11:24:01.569Z,74.91
2023-12-13T11:25:10.615Z,73.93
2023-12-13T11:26:25.234Z,73.34
2023-12-13T11:27:33.988Z,72.60
2023-12-13T11:28:40.549Z,72.52
2023-12-13T11:29:49.023Z,72.44
2023-12-13T11:30:57.254Z,71.94
2023-12-13T11:32:05.585Z,71.85
2023-12-13T11:33:15.798Z,71.90
2023-12-13T11:34:33.778Z,71.51
2023-12-13T11:35:41.881Z,71.46
2023-12-13T11:36:48.547Z,72.32
2023-12-13T11:37:56.403Z,71.61
2023-12-13T11:39:04.877Z,71.23
2023-12-13T11:40:13.476Z,71.73
2023-12-13T11:41:21.553Z,72.30
2023-12-13T11:42:27.781Z,72.00
2023-12-13T11:43:34.389Z,71.85
2023-12-13T11:44:43.891Z,71.84
2023-12-13T11:45:51.523Z,71.44
2023-12-13T11:46:56.782Z,71.17
2023-12-13T11:48:04.935Z,71.51
2023-12-13T11:49:11.680Z,71.21
2023-12-13T11:50:21.490Z,71.57
2023-12-13T11:51:28.708Z,71.73
2023-12-13T11:52:35.345Z,71.35
2023-12-13T11:53:42.095Z,71.15
2023-12-13T11:54:48.641Z,70.13
2023-12-13T11:55:56.638Z,69.65
2023-12-13T11:57:11.787Z,69.74
2023-12-13T11:58:18.565Z,69.49
2023-12-13T11:59:26.431Z,70.02
2023-12-13T12:00:33.599Z,70.26
2023-12-13T12:01:42.013Z,70.14
2023-12-13T12:02:52.903Z,69.88
2023-12-13T12:03:59.874Z,69.23
2023-12-13T12:05:09.754Z,69.54
2023-12-13T12:06:23.496Z,69.52
2023-12-13T12:07:30.604Z,69.77
2023-12-13T12:08:37.970Z,70.03
2023-12-13T12:09:49.590Z,70.97
2023-12-13T12:10:56.813Z,70.80
2023-12-13T12:12:05.049Z,70.62
2023-12-13T12:13:15.601Z,70.73
2023-12-13T12:14:26.204Z,70.14
2023-12-13T12:15:33.649Z,70.18
2023-12-13T12:16:41.100Z,70.21
2023-12-13T12:17:48.926Z,70.30
2023-12-13T12:18:56.809Z,69.91
2023-12-13T12:20:04.659Z,69.96
2023-12-13T12:21:12.237Z,69.96
2023-12-13T12:22:23.138Z,70.25
2023-12-13T12:23:32.992Z,70.91
2023-12-13T12:24:39.539Z,70.86
2023-12-13T12:25:47.535Z,70.68
2023-12-13T12:26:55.806Z,70.42
2023-12-13T12:28:02.848Z,70.22
2023-12-13T12:29:09.433Z,70.65
2023-12-13T12:30:18.775Z,70.49
2023-12-13T12:31:25.481Z,69.73
2023-12-13T12:32:32.002Z,70.68
2023-12-13T12:33:39.361Z,70.32
2023-12-13T12:34:50.846Z,69.29
2023-12-13T12:35:58.912Z,69.30
2023-12-13T12:37:06.123Z,69.56
2023-12-13T12:38:13.400Z,69.43
2023-12-13T12:39:20.283Z,70.06
2023-12-13T12:40:26.836Z,70.07
2023-12-13T12:41:35.836Z,70.24
2023-12-13T12:42:44.182Z,70.47
2023-12-13T12:43:51.522Z,70.82
2023-12-13T12:44:57.977Z,70.58
2023-12-13T12:46:05.776Z,70.49
2023-12-13T12:47:12.041Z,70.19
2023-12-13T12:48:19.486Z,70.33
2023-12-13T12:49:26.621Z,70.91
2023-12-13T12:50:33.321Z,70.22
2023-12-13T12:51:39.878Z,70.27
2023-12-13T12:52:46.413Z,70.42
2023-12-13T12:53:53.053Z,70.64
2023-12-13T12:54:59.344Z,70.47
2023-12-13T12:56:11.245Z,70.42
2023-12-13T12:57:19.349Z,69.65
2023-12-13T12:58:26.059Z,68.78
2023-12-13T12:59:32.638Z,68.76
2023-12-13T13:00:39.271Z,69.50
2023-12-13T13:01:46.629Z,69.77
2023-12-13T13:02:54.058Z,69.93
2023-12-13T13:04:01.003Z,70.08
2023-12-13T13:05:08.853Z,70.01
2023-12-13T13:06:16.093Z,69.40
2023-12-13T13:07:22.620Z,69.49
2023-12-13T13:08:30.045Z,69.68
2023-12-13T13:09:37.115Z,69.59
2023-12-13T13:10:43.929Z,69.78
2023-12-13T13:11:50.553Z,69.92
2023-12-13T13:12:57.716Z,70.31
2023-12-13T13:14:07.997Z,70.18
2023-12-13T13:15:15.115Z,70.13
2023-12-13T13:16:22.549Z,70.34
2023-12-13T13:17:31.713Z,70.05
2023-12-13T13:18:38.468Z,69.44
2023-12-13T13:19:45.125Z,69.42
2023-12-13T13:20:51.935Z,69.15
2023-12-13T13:22:03.203Z,69.57
2023-12-13T13:23:15.016Z,69.55
2023-12-13T13:24:23.454Z,70.04
2023-12-13T13:25:30.403Z,69.98
2023-12-13T13:26:38.071Z,69.99
2023-12-13T13:27:45.805Z,70.27
2023-12-13T13:28:52.824Z,69.98
2023-12-13T13:29:59.575Z,69.83
2023-12-13T13:31:06.748Z,69.96
2023-12-13T13:32:13.526Z,69.65
2023-12-13T13:33:20.171Z,69.54
2023-12-13T13:34:26.807Z,70.03
2023-12-13T13:35:33.244Z,69.84
2023-12-13T13:36:39.851Z,69.70
2023-12-13T13:37:47.250Z,69.82
2023-12-13T13:38:53.960Z,69.71
2023-12-13T13:40:00.341Z,69.77
2023-12-13T13:41:07.753Z,69.72
2023-12-13T13:42:14.345Z,69.60
2023-12-13T13:43:21.013Z,70.13
2023-12-13T13:44:27.788Z,70.95
2023-12-13T13:45:34.458Z,70.62
2023-12-13T13:46:41.570Z,70.35
2023-12-13T13:47:48.508Z,70.14
2023-12-13T13:48:57.369Z,70.22
2023-12-13T13:50:04.683Z,70.28
2023-12-13T13:51:11.041Z,70.36
2023-12-13T13:52:18.960Z,70.40
2023-12-13T13:53:29.509Z,70.22
2023-12-13T13:54:36.357Z,70.46
2023-12-13T13:55:43.000Z,70.40
2023-12-13T13:56:49.780Z,70.43
2023-12-13T13:57:56.490Z,70.78
2023-12-13T13:59:02.991Z,70.83
2023-12-13T14:00:12.992Z,71.02
2023-12-13T14:01:19.666Z,71.39
2023-12-13T14:02:33.752Z,71.21
2023-12-13T14:03:40.828Z,71.28
2023-12-13T14:04:47.478Z,71.12
2023-12-13T14:05:57.101Z,71.17
2023-12-13T14:07:05.749Z,71.25
2023-12-13T14:08:15.320Z,71.02
2023-12-13T14:09:22.732Z,71.07
2023-12-13T14:10:29.430Z,71.19
2023-12-13T14:11:36.219Z,70.99
2023-12-13T14:12:42.809Z,70.60
2023-12-13T14:13:51.644Z,71.10
2023-12-13T14:14:58.412Z,71.34
2023-12-13T14:16:05.603Z,71.53
2023-12-13T14:17:13.039Z,71.76
2023-12-13T14:18:21.589Z,71.30
2023-12-13T14:19:28.440Z,71.39
2023-12-13T14:20:34.969Z,71.30
2023-12-13T14:21:41.591Z,71.38
2023-12-13T14:22:48.277Z,71.23
2023-12-13T14:23:55.851Z,71.16
2023-12-13T14:25:02.496Z,71.34
2023-12-13T14:26:09.269Z,71.35
2023-12-13T14:27:16.016Z,71.28
2023-12-13T14:28:23.922Z,69.20
2023-12-13T14:29:31.797Z,68.94